sensor_id;sensor_type;location;lat;lon;timestamp;P1;durP1;ratioP1;P2;durP2;ratioP2
76228;SDS011;65021;53.174;18.160;2023-04-06T00:01:57;8.10;;;2.70;;
76228;SDS011;65021;53.174;18.160;2023-04-06T00:04:23;5.60;;;2.40;;
76228;SDS011;65021;53.174;18.160;2023-04-06T00:06:49;8.30;;;3.30;;
76228;SDS011;65021;53.174;18.160;2023-04-06T00:09:15;7.60;;;2.60;;
76228;SDS011;65021;53.174;18.160;2023-04-06T00:11:41;11.50;;;4.20;;
76228;SDS011;65021;53.174;18.160;2023-04-06T00:14:07;12.70;;;4.00;;
76228;SDS011;65021;53.174;18.160;2023-04-06T00:16:33;7.20;;;2.50;;
76228;SDS011;65021;53.174;18.160;2023-04-06T00:18:59;9.00;;;3.20;;
76228;SDS011;65021;53.174;18.160;2023-04-06T00:21:25;6.60;;;2.30;;
76228;SDS011;65021;53.174;18.160;2023-04-06T00:23:54;6.70;;;2.50;;
76228;SDS011;65021;53.174;18.160;2023-04-06T00:26:19;9.60;;;3.50;;
76228;SDS011;65021;53.174;18.160;2023-04-06T00:28:46;9.00;;;2.90;;
76228;SDS011;65021;53.174;18.160;2023-04-06T00:31:12;6.00;;;2.20;;
76228;SDS011;65021;53.174;18.160;2023-04-06T00:33:37;9.70;;;3.40;;
76228;SDS011;65021;53.174;18.160;2023-04-06T00:36:03;7.80;;;3.50;;
76228;SDS011;65021;53.174;18.160;2023-04-06T00:38:31;9.30;;;4.10;;
76228;SDS011;65021;53.174;18.160;2023-04-06T00:40:57;8.10;;;3.40;;
76228;SDS011;65021;53.174;18.160;2023-04-06T00:43:23;10.30;;;3.60;;
76228;SDS011;65021;53.174;18.160;2023-04-06T00:45:50;10.10;;;3.90;;
76228;SDS011;65021;53.174;18.160;2023-04-06T00:48:16;8.00;;;3.10;;
76228;SDS011;65021;53.174;18.160;2023-04-06T00:50:42;12.00;;;4.20;;
76228;SDS011;65021;53.174;18.160;2023-04-06T00:53:08;7.20;;;2.90;;
76228;SDS011;65021;53.174;18.160;2023-04-06T00:55:34;7.20;;;3.10;;
76228;SDS011;65021;53.174;18.160;2023-04-06T00:58:01;10.30;;;3.40;;
76228;SDS011;65021;53.174;18.160;2023-04-06T01:00:28;9.30;;;4.60;;
76228;SDS011;65021;53.174;18.160;2023-04-06T01:02:54;10.90;;;4.00;;
76228;SDS011;65021;53.174;18.160;2023-04-06T01:05:20;9.40;;;3.80;;
76228;SDS011;65021;53.174;18.160;2023-04-06T01:07:46;8.60;;;3.50;;
76228;SDS011;65021;53.174;18.160;2023-04-06T01:10:21;10.90;;;3.30;;
76228;SDS011;65021;53.174;18.160;2023-04-06T01:12:49;7.00;;;2.60;;
76228;SDS011;65021;53.174;18.160;2023-04-06T01:15:14;8.20;;;3.80;;
76228;SDS011;65021;53.174;18.160;2023-04-06T01:17:41;8.10;;;3.10;;
76228;SDS011;65021;53.174;18.160;2023-04-06T01:20:07;12.00;;;4.60;;
76228;SDS011;65021;53.174;18.160;2023-04-06T01:22:33;11.70;;;3.50;;
76228;SDS011;65021;53.174;18.160;2023-04-06T01:24:59;14.50;;;5.00;;
76228;SDS011;65021;53.174;18.160;2023-04-06T01:27:25;14.10;;;4.40;;
76228;SDS011;65021;53.174;18.160;2023-04-06T01:29:53;9.60;;;3.90;;
76228;SDS011;65021;53.174;18.160;2023-04-06T01:32:19;10.00;;;3.90;;
76228;SDS011;65021;53.174;18.160;2023-04-06T01:34:46;9.50;;;3.60;;
76228;SDS011;65021;53.174;18.160;2023-04-06T01:37:12;15.30;;;4.90;;
76228;SDS011;65021;53.174;18.160;2023-04-06T01:39:38;8.90;;;3.30;;
76228;SDS011;65021;53.174;18.160;2023-04-06T01:42:04;8.80;;;3.70;;
76228;SDS011;65021;53.174;18.160;2023-04-06T01:44:30;14.00;;;4.40;;
76228;SDS011;65021;53.174;18.160;2023-04-06T01:46:56;12.10;;;4.20;;
76228;SDS011;65021;53.174;18.160;2023-04-06T01:49:22;11.50;;;4.20;;
76228;SDS011;65021;53.174;18.160;2023-04-06T01:51:48;11.30;;;3.60;;
76228;SDS011;65021;53.174;18.160;2023-04-06T01:54:14;10.80;;;4.30;;
76228;SDS011;65021;53.174;18.160;2023-04-06T01:56:43;8.80;;;3.20;;
76228;SDS011;65021;53.174;18.160;2023-04-06T01:59:09;13.20;;;4.40;;
76228;SDS011;65021;53.174;18.160;2023-04-06T02:01:35;10.50;;;3.90;;
76228;SDS011;65021;53.174;18.160;2023-04-06T02:04:01;8.40;;;3.30;;
76228;SDS011;65021;53.174;18.160;2023-04-06T02:06:27;11.00;;;3.70;;
76228;SDS011;65021;53.174;18.160;2023-04-06T02:08:53;11.10;;;4.00;;
76228;SDS011;65021;53.174;18.160;2023-04-06T02:11:19;9.90;;;3.70;;
76228;SDS011;65021;53.174;18.160;2023-04-06T02:13:45;13.70;;;4.50;;
76228;SDS011;65021;53.174;18.160;2023-04-06T02:16:11;13.10;;;4.20;;
76228;SDS011;65021;53.174;18.160;2023-04-06T02:18:37;16.70;;;4.90;;
76228;SDS011;65021;53.174;18.160;2023-04-06T02:21:03;9.40;;;3.70;;
76228;SDS011;65021;53.174;18.160;2023-04-06T02:23:29;9.50;;;3.70;;
76228;SDS011;65021;53.174;18.160;2023-04-06T02:25:55;9.30;;;3.60;;
76228;SDS011;65021;53.174;18.160;2023-04-06T02:28:21;11.50;;;4.30;;
76228;SDS011;65021;53.174;18.160;2023-04-06T02:30:47;10.80;;;3.80;;
76228;SDS011;65021;53.174;18.160;2023-04-06T02:33:16;8.90;;;3.80;;
76228;SDS011;65021;53.174;18.160;2023-04-06T02:35:43;9.80;;;4.10;;
76228;SDS011;65021;53.174;18.160;2023-04-06T02:38:10;16.70;;;4.30;;
76228;SDS011;65021;53.174;18.160;2023-04-06T02:40:36;10.80;;;4.10;;
76228;SDS011;65021;53.174;18.160;2023-04-06T02:43:02;12.50;;;4.30;;
76228;SDS011;65021;53.174;18.160;2023-04-06T02:45:28;12.70;;;3.50;;
76228;SDS011;65021;53.174;18.160;2023-04-06T02:47:54;12.30;;;4.50;;
76228;SDS011;65021;53.174;18.160;2023-04-06T02:50:20;12.40;;;4.10;;
76228;SDS011;65021;53.174;18.160;2023-04-06T02:52:46;8.80;;;3.70;;
76228;SDS011;65021;53.174;18.160;2023-04-06T02:55:12;6.00;;;2.50;;
76228;SDS011;65021;53.174;18.160;2023-04-06T02:57:37;10.60;;;4.70;;
76228;SDS011;65021;53.174;18.160;2023-04-06T03:00:04;12.80;;;5.20;;
76228;SDS011;65021;53.174;18.160;2023-04-06T03:02:30;12.70;;;4.50;;
76228;SDS011;65021;53.174;18.160;2023-04-06T03:04:56;6.80;;;2.80;;
76228;SDS011;65021;53.174;18.160;2023-04-06T03:07:22;12.70;;;4.20;;
76228;SDS011;65021;53.174;18.160;2023-04-06T03:09:48;13.90;;;5.10;;
76228;SDS011;65021;53.174;18.160;2023-04-06T03:12:14;6.30;;;3.20;;
76228;SDS011;65021;53.174;18.160;2023-04-06T03:14:40;11.00;;;4.10;;
76228;SDS011;65021;53.174;18.160;2023-04-06T03:17:13;7.90;;;3.50;;
76228;SDS011;65021;53.174;18.160;2023-04-06T03:19:39;11.40;;;4.50;;
76228;SDS011;65021;53.174;18.160;2023-04-06T03:22:05;12.90;;;5.00;;
76228;SDS011;65021;53.174;18.160;2023-04-06T03:24:31;7.00;;;2.70;;
76228;SDS011;65021;53.174;18.160;2023-04-06T03:26:56;9.00;;;3.20;;
76228;SDS011;65021;53.174;18.160;2023-04-06T03:29:22;11.90;;;4.10;;
76228;SDS011;65021;53.174;18.160;2023-04-06T03:31:48;9.80;;;3.70;;
76228;SDS011;65021;53.174;18.160;2023-04-06T03:34:14;13.00;;;4.50;;
76228;SDS011;65021;53.174;18.160;2023-04-06T03:36:41;8.10;;;2.80;;
76228;SDS011;65021;53.174;18.160;2023-04-06T03:39:06;13.00;;;4.90;;
76228;SDS011;65021;53.174;18.160;2023-04-06T03:41:32;8.90;;;3.40;;
76228;SDS011;65021;53.174;18.160;2023-04-06T03:43:58;10.70;;;3.90;;
76228;SDS011;65021;53.174;18.160;2023-04-06T03:46:24;7.60;;;3.30;;
76228;SDS011;65021;53.174;18.160;2023-04-06T03:48:51;9.10;;;4.10;;
76228;SDS011;65021;53.174;18.160;2023-04-06T03:51:16;15.80;;;5.80;;
76228;SDS011;65021;53.174;18.160;2023-04-06T03:53:42;9.10;;;3.50;;
76228;SDS011;65021;53.174;18.160;2023-04-06T03:56:08;11.40;;;4.50;;
76228;SDS011;65021;53.174;18.160;2023-04-06T03:58:34;9.00;;;3.60;;
76228;SDS011;65021;53.174;18.160;2023-04-06T04:01:00;12.00;;;4.30;;
76228;SDS011;65021;53.174;18.160;2023-04-06T04:03:26;8.00;;;2.80;;
76228;SDS011;65021;53.174;18.160;2023-04-06T04:05:53;9.60;;;3.20;;
76228;SDS011;65021;53.174;18.160;2023-04-06T04:08:20;13.20;;;6.00;;
76228;SDS011;65021;53.174;18.160;2023-04-06T04:10:47;12.30;;;4.50;;
76228;SDS011;65021;53.174;18.160;2023-04-06T04:13:13;8.40;;;3.30;;
76228;SDS011;65021;53.174;18.160;2023-04-06T04:15:39;11.00;;;3.70;;
76228;SDS011;65021;53.174;18.160;2023-04-06T04:18:05;10.70;;;3.60;;
76228;SDS011;65021;53.174;18.160;2023-04-06T04:20:31;7.50;;;3.40;;
76228;SDS011;65021;53.174;18.160;2023-04-06T04:22:56;10.10;;;3.30;;
76228;SDS011;65021;53.174;18.160;2023-04-06T04:25:22;9.50;;;3.90;;
76228;SDS011;65021;53.174;18.160;2023-04-06T04:27:49;8.90;;;3.90;;
76228;SDS011;65021;53.174;18.160;2023-04-06T04:30:16;7.90;;;2.80;;
76228;SDS011;65021;53.174;18.160;2023-04-06T04:32:42;13.80;;;4.40;;
76228;SDS011;65021;53.174;18.160;2023-04-06T04:35:08;13.30;;;3.50;;
76228;SDS011;65021;53.174;18.160;2023-04-06T04:37:34;14.00;;;4.80;;
76228;SDS011;65021;53.174;18.160;2023-04-06T04:40:00;15.50;;;5.30;;
76228;SDS011;65021;53.174;18.160;2023-04-06T04:42:26;12.90;;;5.30;;
76228;SDS011;65021;53.174;18.160;2023-04-06T04:44:52;10.20;;;3.30;;
76228;SDS011;65021;53.174;18.160;2023-04-06T04:47:18;11.10;;;3.60;;
76228;SDS011;65021;53.174;18.160;2023-04-06T04:49:44;9.80;;;3.10;;
76228;SDS011;65021;53.174;18.160;2023-04-06T04:52:10;12.60;;;4.50;;
76228;SDS011;65021;53.174;18.160;2023-04-06T04:54:36;11.20;;;3.60;;
76228;SDS011;65021;53.174;18.160;2023-04-06T04:57:02;12.00;;;3.80;;
76228;SDS011;65021;53.174;18.160;2023-04-06T04:59:28;11.30;;;3.90;;
76228;SDS011;65021;53.174;18.160;2023-04-06T05:01:55;12.20;;;4.30;;
76228;SDS011;65021;53.174;18.160;2023-04-06T05:04:21;8.90;;;3.00;;
76228;SDS011;65021;53.174;18.160;2023-04-06T05:06:47;8.50;;;3.70;;
76228;SDS011;65021;53.174;18.160;2023-04-06T05:09:13;12.30;;;4.00;;
76228;SDS011;65021;53.174;18.160;2023-04-06T05:11:39;13.10;;;4.60;;
76228;SDS011;65021;53.174;18.160;2023-04-06T05:14:05;11.80;;;4.50;;
76228;SDS011;65021;53.174;18.160;2023-04-06T05:16:32;16.00;;;5.20;;
76228;SDS011;65021;53.174;18.160;2023-04-06T05:19:00;15.50;;;6.80;;
76228;SDS011;65021;53.174;18.160;2023-04-06T05:21:29;14.20;;;5.70;;
76228;SDS011;65021;53.174;18.160;2023-04-06T05:23:55;14.60;;;6.80;;
76228;SDS011;65021;53.174;18.160;2023-04-06T05:26:21;13.00;;;5.30;;
76228;SDS011;65021;53.174;18.160;2023-04-06T05:28:47;17.30;;;5.00;;
76228;SDS011;65021;53.174;18.160;2023-04-06T05:31:13;15.20;;;6.00;;
76228;SDS011;65021;53.174;18.160;2023-04-06T05:33:40;13.70;;;4.70;;
76228;SDS011;65021;53.174;18.160;2023-04-06T05:36:06;16.30;;;7.70;;
76228;SDS011;65021;53.174;18.160;2023-04-06T05:38:32;15.00;;;5.70;;
76228;SDS011;65021;53.174;18.160;2023-04-06T05:40:58;16.30;;;7.50;;
76228;SDS011;65021;53.174;18.160;2023-04-06T05:43:24;19.00;;;7.00;;
76228;SDS011;65021;53.174;18.160;2023-04-06T05:45:50;17.60;;;7.40;;
76228;SDS011;65021;53.174;18.160;2023-04-06T05:48:16;21.70;;;8.10;;
76228;SDS011;65021;53.174;18.160;2023-04-06T05:50:42;17.00;;;7.50;;
76228;SDS011;65021;53.174;18.160;2023-04-06T05:53:08;20.80;;;8.60;;
76228;SDS011;65021;53.174;18.160;2023-04-06T05:55:34;20.90;;;9.50;;
76228;SDS011;65021;53.174;18.160;2023-04-06T05:58:00;19.00;;;8.90;;
76228;SDS011;65021;53.174;18.160;2023-04-06T06:00:26;23.90;;;9.50;;
76228;SDS011;65021;53.174;18.160;2023-04-06T06:02:51;21.40;;;9.10;;
76228;SDS011;65021;53.174;18.160;2023-04-06T06:05:17;21.90;;;8.50;;
76228;SDS011;65021;53.174;18.160;2023-04-06T06:07:46;20.30;;;9.80;;
76228;SDS011;65021;53.174;18.160;2023-04-06T06:10:12;19.50;;;8.20;;
76228;SDS011;65021;53.174;18.160;2023-04-06T06:12:38;19.50;;;8.90;;
76228;SDS011;65021;53.174;18.160;2023-04-06T06:15:04;21.60;;;9.90;;
76228;SDS011;65021;53.174;18.160;2023-04-06T06:17:30;16.30;;;9.00;;
76228;SDS011;65021;53.174;18.160;2023-04-06T06:19:56;21.20;;;10.10;;
76228;SDS011;65021;53.174;18.160;2023-04-06T06:22:22;24.20;;;10.40;;
76228;SDS011;65021;53.174;18.160;2023-04-06T06:24:48;26.60;;;10.60;;
76228;SDS011;65021;53.174;18.160;2023-04-06T06:27:15;22.50;;;8.10;;
76228;SDS011;65021;53.174;18.160;2023-04-06T06:29:41;19.30;;;9.30;;
76228;SDS011;65021;53.174;18.160;2023-04-06T06:32:07;21.30;;;10.10;;
76228;SDS011;65021;53.174;18.160;2023-04-06T06:34:36;22.00;;;10.00;;
76228;SDS011;65021;53.174;18.160;2023-04-06T06:37:01;22.20;;;11.40;;
76228;SDS011;65021;53.174;18.160;2023-04-06T06:39:28;30.40;;;11.50;;
76228;SDS011;65021;53.174;18.160;2023-04-06T06:41:54;23.10;;;11.20;;
76228;SDS011;65021;53.174;18.160;2023-04-06T06:44:20;15.00;;;7.10;;
76228;SDS011;65021;53.174;18.160;2023-04-06T06:46:47;22.90;;;10.80;;
76228;SDS011;65021;53.174;18.160;2023-04-06T06:49:13;27.60;;;12.10;;
76228;SDS011;65021;53.174;18.160;2023-04-06T06:51:40;21.10;;;10.00;;
76228;SDS011;65021;53.174;18.160;2023-04-06T06:54:06;21.50;;;10.90;;
76228;SDS011;65021;53.174;18.160;2023-04-06T06:56:32;20.10;;;10.60;;
76228;SDS011;65021;53.174;18.160;2023-04-06T06:58:58;15.60;;;7.00;;
76228;SDS011;65021;53.174;18.160;2023-04-06T07:01:23;20.40;;;9.10;;
76228;SDS011;65021;53.174;18.160;2023-04-06T07:03:49;20.60;;;8.10;;
76228;SDS011;65021;53.174;18.160;2023-04-06T07:06:15;13.80;;;6.10;;
76228;SDS011;65021;53.174;18.160;2023-04-06T07:08:41;14.60;;;6.90;;
76228;SDS011;65021;53.174;18.160;2023-04-06T07:11:07;8.40;;;4.40;;
76228;SDS011;65021;53.174;18.160;2023-04-06T07:13:33;9.30;;;4.70;;
76228;SDS011;65021;53.174;18.160;2023-04-06T07:15:59;8.60;;;3.80;;
76228;SDS011;65021;53.174;18.160;2023-04-06T07:18:24;13.10;;;6.50;;
76228;SDS011;65021;53.174;18.160;2023-04-06T07:20:50;9.50;;;5.20;;
76228;SDS011;65021;53.174;18.160;2023-04-06T07:23:16;14.20;;;6.10;;
76228;SDS011;65021;53.174;18.160;2023-04-06T07:25:42;13.40;;;5.10;;
76228;SDS011;65021;53.174;18.160;2023-04-06T07:28:08;12.60;;;5.70;;
76228;SDS011;65021;53.174;18.160;2023-04-06T07:30:34;14.00;;;5.90;;
76228;SDS011;65021;53.174;18.160;2023-04-06T07:33:00;11.20;;;5.10;;
76228;SDS011;65021;53.174;18.160;2023-04-06T07:35:26;10.30;;;4.40;;
76228;SDS011;65021;53.174;18.160;2023-04-06T07:37:53;10.80;;;5.00;;
76228;SDS011;65021;53.174;18.160;2023-04-06T07:40:20;7.00;;;3.00;;
76228;SDS011;65021;53.174;18.160;2023-04-06T07:42:46;8.80;;;4.30;;
76228;SDS011;65021;53.174;18.160;2023-04-06T07:45:12;6.80;;;3.20;;
76228;SDS011;65021;53.174;18.160;2023-04-06T07:47:38;6.70;;;2.60;;
76228;SDS011;65021;53.174;18.160;2023-04-06T07:50:04;6.00;;;3.20;;
76228;SDS011;65021;53.174;18.160;2023-04-06T07:52:30;8.80;;;4.10;;
76228;SDS011;65021;53.174;18.160;2023-04-06T07:54:57;9.60;;;3.40;;
76228;SDS011;65021;53.174;18.160;2023-04-06T07:57:24;5.60;;;1.90;;
76228;SDS011;65021;53.174;18.160;2023-04-06T07:59:50;5.80;;;2.90;;
76228;SDS011;65021;53.174;18.160;2023-04-06T08:02:16;8.60;;;3.30;;
76228;SDS011;65021;53.174;18.160;2023-04-06T08:04:42;9.60;;;3.00;;
76228;SDS011;65021;53.174;18.160;2023-04-06T08:07:09;9.30;;;4.00;;
76228;SDS011;65021;53.174;18.160;2023-04-06T08:09:35;8.10;;;2.90;;
76228;SDS011;65021;53.174;18.160;2023-04-06T08:12:01;9.60;;;3.00;;
76228;SDS011;65021;53.174;18.160;2023-04-06T08:14:27;4.50;;;1.80;;
76228;SDS011;65021;53.174;18.160;2023-04-06T08:16:53;4.70;;;1.90;;
76228;SDS011;65021;53.174;18.160;2023-04-06T08:19:19;6.80;;;3.00;;
76228;SDS011;65021;53.174;18.160;2023-04-06T08:21:45;5.80;;;2.50;;
76228;SDS011;65021;53.174;18.160;2023-04-06T08:24:13;4.30;;;2.10;;
76228;SDS011;65021;53.174;18.160;2023-04-06T08:26:40;4.40;;;1.90;;
76228;SDS011;65021;53.174;18.160;2023-04-06T08:29:06;5.90;;;2.70;;
76228;SDS011;65021;53.174;18.160;2023-04-06T08:31:35;4.30;;;1.80;;
76228;SDS011;65021;53.174;18.160;2023-04-06T08:34:01;4.50;;;1.80;;
76228;SDS011;65021;53.174;18.160;2023-04-06T08:36:29;5.30;;;2.50;;
76228;SDS011;65021;53.174;18.160;2023-04-06T08:38:55;4.40;;;1.70;;
76228;SDS011;65021;53.174;18.160;2023-04-06T08:41:21;5.90;;;2.50;;
76228;SDS011;65021;53.174;18.160;2023-04-06T08:43:48;5.10;;;2.30;;
76228;SDS011;65021;53.174;18.160;2023-04-06T08:46:19;5.90;;;2.60;;
76228;SDS011;65021;53.174;18.160;2023-04-06T08:48:47;7.20;;;3.90;;
76228;SDS011;65021;53.174;18.160;2023-04-06T08:53:43;5.80;;;3.10;;
76228;SDS011;65021;53.174;18.160;2023-04-06T08:56:09;9.20;;;3.30;;
76228;SDS011;65021;53.174;18.160;2023-04-06T08:58:37;6.50;;;3.60;;
76228;SDS011;65021;53.174;18.160;2023-04-06T09:01:08;7.50;;;3.90;;
76228;SDS011;65021;53.174;18.160;2023-04-06T09:03:38;8.50;;;3.90;;
76228;SDS011;65021;53.174;18.160;2023-04-06T09:06:05;8.40;;;4.00;;
76228;SDS011;65021;53.174;18.160;2023-04-06T09:08:33;7.50;;;3.40;;
76228;SDS011;65021;53.174;18.160;2023-04-06T09:11:00;9.50;;;4.20;;
76228;SDS011;65021;53.174;18.160;2023-04-06T09:13:27;5.70;;;2.40;;
76228;SDS011;65021;53.174;18.160;2023-04-06T09:16:03;8.00;;;4.50;;
76228;SDS011;65021;53.174;18.160;2023-04-06T09:18:30;8.40;;;3.50;;
76228;SDS011;65021;53.174;18.160;2023-04-06T09:21:00;8.10;;;3.30;;
76228;SDS011;65021;53.174;18.160;2023-04-06T09:23:27;8.80;;;3.80;;
76228;SDS011;65021;53.174;18.160;2023-04-06T09:26:07;10.80;;;4.40;;
76228;SDS011;65021;53.174;18.160;2023-04-06T09:31:16;6.50;;;2.60;;
76228;SDS011;65021;53.174;18.160;2023-04-06T09:33:46;8.20;;;3.60;;
76228;SDS011;65021;53.174;18.160;2023-04-06T09:36:13;8.30;;;3.90;;
76228;SDS011;65021;53.174;18.160;2023-04-06T09:38:51;9.50;;;4.10;;
76228;SDS011;65021;53.174;18.160;2023-04-06T09:41:23;8.70;;;4.30;;
76228;SDS011;65021;53.174;18.160;2023-04-06T09:43:51;8.40;;;3.80;;
76228;SDS011;65021;53.174;18.160;2023-04-06T09:46:18;5.60;;;2.20;;
76228;SDS011;65021;53.174;18.160;2023-04-06T09:48:46;8.30;;;3.60;;
76228;SDS011;65021;53.174;18.160;2023-04-06T09:51:13;4.40;;;2.00;;
76228;SDS011;65021;53.174;18.160;2023-04-06T09:53:41;7.70;;;3.70;;
76228;SDS011;65021;53.174;18.160;2023-04-06T09:56:11;3.00;;;1.50;;
76228;SDS011;65021;53.174;18.160;2023-04-06T09:58:41;7.70;;;2.30;;
76228;SDS011;65021;53.174;18.160;2023-04-06T10:01:13;4.20;;;1.90;;
76228;SDS011;65021;53.174;18.160;2023-04-06T10:03:51;7.00;;;2.80;;
76228;SDS011;65021;53.174;18.160;2023-04-06T10:06:22;6.00;;;3.40;;
76228;SDS011;65021;53.174;18.160;2023-04-06T10:08:51;5.80;;;2.60;;
76228;SDS011;65021;53.174;18.160;2023-04-06T10:11:20;8.90;;;3.20;;
76228;SDS011;65021;53.174;18.160;2023-04-06T10:13:46;7.30;;;3.30;;
76228;SDS011;65021;53.174;18.160;2023-04-06T10:16:14;4.80;;;1.70;;
76228;SDS011;65021;53.174;18.160;2023-04-06T10:18:42;5.10;;;2.10;;
76228;SDS011;65021;53.174;18.160;2023-04-06T10:21:12;6.60;;;3.40;;
76228;SDS011;65021;53.174;18.160;2023-04-06T10:23:43;5.90;;;2.90;;
76228;SDS011;65021;53.174;18.160;2023-04-06T10:26:14;7.60;;;3.90;;
76228;SDS011;65021;53.174;18.160;2023-04-06T10:28:42;8.50;;;3.30;;
76228;SDS011;65021;53.174;18.160;2023-04-06T10:31:09;8.10;;;3.60;;
76228;SDS011;65021;53.174;18.160;2023-04-06T10:33:35;8.90;;;3.20;;
76228;SDS011;65021;53.174;18.160;2023-04-06T10:38:39;6.70;;;3.50;;
76228;SDS011;65021;53.174;18.160;2023-04-06T10:41:06;5.10;;;2.20;;
76228;SDS011;65021;53.174;18.160;2023-04-06T10:43:34;5.60;;;2.80;;
76228;SDS011;65021;53.174;18.160;2023-04-06T10:46:04;7.00;;;3.50;;
76228;SDS011;65021;53.174;18.160;2023-04-06T10:48:37;7.60;;;3.20;;
76228;SDS011;65021;53.174;18.160;2023-04-06T10:51:08;5.30;;;2.70;;
76228;SDS011;65021;53.174;18.160;2023-04-06T10:53:36;6.00;;;2.70;;
76228;SDS011;65021;53.174;18.160;2023-04-06T10:56:02;7.60;;;3.40;;
76228;SDS011;65021;53.174;18.160;2023-04-06T10:58:30;8.20;;;3.30;;
76228;SDS011;65021;53.174;18.160;2023-04-06T11:00:56;4.30;;;1.80;;
76228;SDS011;65021;53.174;18.160;2023-04-06T11:03:22;6.30;;;3.20;;
76228;SDS011;65021;53.174;18.160;2023-04-06T11:05:49;5.70;;;2.30;;
76228;SDS011;65021;53.174;18.160;2023-04-06T11:08:26;4.90;;;2.40;;
76228;SDS011;65021;53.174;18.160;2023-04-06T11:11:03;7.80;;;3.80;;
76228;SDS011;65021;53.174;18.160;2023-04-06T11:14:04;7.80;;;3.30;;
76228;SDS011;65021;53.174;18.160;2023-04-06T11:16:27;7.70;;;3.40;;
76228;SDS011;65021;53.174;18.160;2023-04-06T11:18:56;5.40;;;2.60;;
76228;SDS011;65021;53.174;18.160;2023-04-06T11:21:38;6.80;;;3.30;;
76228;SDS011;65021;53.174;18.160;2023-04-06T11:26:44;7.40;;;3.10;;
76228;SDS011;65021;53.174;18.160;2023-04-06T11:29:14;8.10;;;3.40;;
76228;SDS011;65021;53.174;18.160;2023-04-06T11:31:44;6.20;;;2.60;;
76228;SDS011;65021;53.174;18.160;2023-04-06T11:34:21;6.30;;;2.70;;
76228;SDS011;65021;53.174;18.160;2023-04-06T11:36:49;8.70;;;3.00;;
76228;SDS011;65021;53.174;18.160;2023-04-06T11:39:24;9.70;;;3.20;;
76228;SDS011;65021;53.174;18.160;2023-04-06T11:41:53;6.00;;;3.00;;
76228;SDS011;65021;53.174;18.160;2023-04-06T11:44:34;7.20;;;3.40;;
76228;SDS011;65021;53.174;18.160;2023-04-06T11:47:02;6.00;;;2.70;;
76228;SDS011;65021;53.174;18.160;2023-04-06T11:49:29;12.00;;;3.30;;
76228;SDS011;65021;53.174;18.160;2023-04-06T11:51:56;9.50;;;3.80;;
76228;SDS011;65021;53.174;18.160;2023-04-06T11:56:56;6.70;;;3.10;;
76228;SDS011;65021;53.174;18.160;2023-04-06T11:59:22;8.40;;;3.00;;
76228;SDS011;65021;53.174;18.160;2023-04-06T12:01:48;9.50;;;3.80;;
76228;SDS011;65021;53.174;18.160;2023-04-06T12:04:14;5.30;;;1.80;;
76228;SDS011;65021;53.174;18.160;2023-04-06T12:06:40;7.70;;;2.90;;
76228;SDS011;65021;53.174;18.160;2023-04-06T12:09:06;7.70;;;3.30;;
76228;SDS011;65021;53.174;18.160;2023-04-06T12:11:32;7.50;;;3.00;;
76228;SDS011;65021;53.174;18.160;2023-04-06T12:13:58;5.40;;;2.50;;
76228;SDS011;65021;53.174;18.160;2023-04-06T12:16:27;4.40;;;2.00;;
76228;SDS011;65021;53.174;18.160;2023-04-06T12:18:52;7.30;;;3.30;;
76228;SDS011;65021;53.174;18.160;2023-04-06T12:21:18;6.40;;;2.60;;
76228;SDS011;65021;53.174;18.160;2023-04-06T12:23:44;5.00;;;2.00;;
76228;SDS011;65021;53.174;18.160;2023-04-06T12:26:10;6.20;;;2.60;;
76228;SDS011;65021;53.174;18.160;2023-04-06T12:28:36;7.30;;;3.50;;
76228;SDS011;65021;53.174;18.160;2023-04-06T12:31:02;6.30;;;3.00;;
76228;SDS011;65021;53.174;18.160;2023-04-06T12:33:28;5.00;;;1.80;;
76228;SDS011;65021;53.174;18.160;2023-04-06T12:35:54;6.80;;;2.60;;
76228;SDS011;65021;53.174;18.160;2023-04-06T12:38:20;5.80;;;3.00;;
76228;SDS011;65021;53.174;18.160;2023-04-06T12:40:47;6.50;;;3.10;;
76228;SDS011;65021;53.174;18.160;2023-04-06T12:43:13;9.50;;;3.30;;
76228;SDS011;65021;53.174;18.160;2023-04-06T12:45:39;6.10;;;3.10;;
76228;SDS011;65021;53.174;18.160;2023-04-06T12:48:06;6.30;;;2.80;;
76228;SDS011;65021;53.174;18.160;2023-04-06T12:50:32;6.60;;;3.30;;
76228;SDS011;65021;53.174;18.160;2023-04-06T12:52:58;5.70;;;3.00;;
76228;SDS011;65021;53.174;18.160;2023-04-06T12:55:24;6.10;;;2.70;;
76228;SDS011;65021;53.174;18.160;2023-04-06T12:57:50;6.50;;;3.20;;
76228;SDS011;65021;53.174;18.160;2023-04-06T13:00:16;6.10;;;2.50;;
76228;SDS011;65021;53.174;18.160;2023-04-06T13:02:42;9.00;;;3.80;;
76228;SDS011;65021;53.174;18.160;2023-04-06T13:05:12;8.20;;;3.00;;
76228;SDS011;65021;53.174;18.160;2023-04-06T13:07:44;6.30;;;3.20;;
76228;SDS011;65021;53.174;18.160;2023-04-06T13:10:11;5.20;;;2.20;;
76228;SDS011;65021;53.174;18.160;2023-04-06T13:12:36;9.90;;;3.50;;
76228;SDS011;65021;53.174;18.160;2023-04-06T13:15:02;6.20;;;2.80;;
76228;SDS011;65021;53.174;18.160;2023-04-06T13:17:29;11.80;;;3.00;;
76228;SDS011;65021;53.174;18.160;2023-04-06T13:19:55;6.60;;;3.20;;
76228;SDS011;65021;53.174;18.160;2023-04-06T13:22:21;5.80;;;2.60;;
76228;SDS011;65021;53.174;18.160;2023-04-06T13:24:47;6.60;;;3.00;;
76228;SDS011;65021;53.174;18.160;2023-04-06T13:27:13;9.30;;;3.40;;
76228;SDS011;65021;53.174;18.160;2023-04-06T13:29:38;9.10;;;3.40;;
76228;SDS011;65021;53.174;18.160;2023-04-06T13:32:04;8.50;;;3.70;;
76228;SDS011;65021;53.174;18.160;2023-04-06T13:34:30;9.50;;;3.50;;
76228;SDS011;65021;53.174;18.160;2023-04-06T13:36:57;8.50;;;4.00;;
76228;SDS011;65021;53.174;18.160;2023-04-06T13:39:22;9.90;;;4.20;;
76228;SDS011;65021;53.174;18.160;2023-04-06T13:41:49;13.20;;;4.50;;
76228;SDS011;65021;53.174;18.160;2023-04-06T13:44:15;9.80;;;3.50;;
76228;SDS011;65021;53.174;18.160;2023-04-06T13:46:40;7.90;;;3.70;;
76228;SDS011;65021;53.174;18.160;2023-04-06T13:49:06;19.80;;;4.70;;
76228;SDS011;65021;53.174;18.160;2023-04-06T13:51:32;9.10;;;3.60;;
76228;SDS011;65021;53.174;18.160;2023-04-06T13:53:58;9.10;;;3.70;;
76228;SDS011;65021;53.174;18.160;2023-04-06T13:56:24;7.30;;;3.70;;
76228;SDS011;65021;53.174;18.160;2023-04-06T13:58:53;11.70;;;5.00;;
76228;SDS011;65021;53.174;18.160;2023-04-06T14:01:20;9.90;;;4.20;;
76228;SDS011;65021;53.174;18.160;2023-04-06T14:03:47;8.90;;;3.70;;
76228;SDS011;65021;53.174;18.160;2023-04-06T14:06:14;8.90;;;4.60;;
76228;SDS011;65021;53.174;18.160;2023-04-06T14:08:40;9.30;;;3.30;;
76228;SDS011;65021;53.174;18.160;2023-04-06T14:11:10;7.30;;;3.40;;
76228;SDS011;65021;53.174;18.160;2023-04-06T14:13:37;7.20;;;3.30;;
76228;SDS011;65021;53.174;18.160;2023-04-06T14:16:04;5.80;;;3.10;;
76228;SDS011;65021;53.174;18.160;2023-04-06T14:18:30;22.70;;;3.80;;
76228;SDS011;65021;53.174;18.160;2023-04-06T14:20:57;6.90;;;3.00;;
76228;SDS011;65021;53.174;18.160;2023-04-06T14:23:23;8.00;;;3.70;;
76228;SDS011;65021;53.174;18.160;2023-04-06T14:25:52;8.40;;;3.90;;
76228;SDS011;65021;53.174;18.160;2023-04-06T14:28:28;8.10;;;2.90;;
76228;SDS011;65021;53.174;18.160;2023-04-06T14:30:53;4.80;;;2.30;;
76228;SDS011;65021;53.174;18.160;2023-04-06T14:33:19;8.50;;;3.20;;
76228;SDS011;65021;53.174;18.160;2023-04-06T14:35:46;9.90;;;3.80;;
76228;SDS011;65021;53.174;18.160;2023-04-06T14:38:12;7.50;;;3.20;;
76228;SDS011;65021;53.174;18.160;2023-04-06T14:40:37;6.40;;;2.80;;